sensor_id;sensor_type;location;lat;lon;timestamp;temperature;humidity
63976;DHT22;50167;47.958;21.780;2023-07-09T00:00:16;23.09;59.42
63976;DHT22;50167;47.958;21.780;2023-07-09T00:02:44;22.61;58.76
63976;DHT22;50167;47.958;21.780;2023-07-09T00:05:14;21.65;60.35
63976;DHT22;50167;47.958;21.780;2023-07-09T00:07:41;20.76;62.19
63976;DHT22;50167;47.958;21.780;2023-07-09T00:10:20;20.91;64.62
63976;DHT22;50167;47.958;21.780;2023-07-09T00:12:47;21.85;62.77
63976;DHT22;50167;47.958;21.780;2023-07-09T00:15:15;22.33;60.75
63976;DHT22;50167;47.958;21.780;2023-07-09T00:17:42;22.64;59.58
63976;DHT22;50167;47.958;21.780;2023-07-09T00:20:17;22.27;58.75
63976;DHT22;50167;47.958;21.780;2023-07-09T00:22:44;21.27;60.45
63976;DHT22;50167;47.958;21.780;2023-07-09T00:25:20;20.45;62.43
63976;DHT22;50167;47.958;21.780;2023-07-09T00:27:47;20.80;64.55
63976;DHT22;50167;47.958;21.780;2023-07-09T00:30:23;21.64;62.80
63976;DHT22;50167;47.958;21.780;2023-07-09T00:32:50;21.93;61.47
63976;DHT22;50167;47.958;21.780;2023-07-09T00:35:19;22.31;60.53
63976;DHT22;50167;47.958;21.780;2023-07-09T00:37:46;22.62;59.07
63976;DHT22;50167;47.958;21.780;2023-07-09T00:40:21;22.17;57.75
63976;DHT22;50167;47.958;21.780;2023-07-09T00:42:51;21.09;59.47
63976;DHT22;50167;47.958;21.780;2023-07-09T00:45:26;20.28;61.55
63976;DHT22;50167;47.958;21.780;2023-07-09T00:47:59;19.69;63.67
63976;DHT22;50167;47.958;21.780;2023-07-09T00:50:46;20.21;65.74
63976;DHT22;50167;47.958;21.780;2023-07-09T00:53:22;21.21;63.43
63976;DHT22;50167;47.958;21.780;2023-07-09T00:56:08;21.58;61.75
63976;DHT22;50167;47.958;21.780;2023-07-09T00:58:33;21.99;60.57
63976;DHT22;50167;47.958;21.780;2023-07-09T01:01:04;22.30;59.52
63976;DHT22;50167;47.958;21.780;2023-07-09T01:03:40;21.91;59.00
63976;DHT22;50167;47.958;21.780;2023-07-09T01:06:09;20.91;60.87
63976;DHT22;50167;47.958;21.780;2023-07-09T01:08:38;20.14;63.05
63976;DHT22;50167;47.958;21.780;2023-07-09T01:11:18;20.53;64.97
63976;DHT22;50167;47.958;21.780;2023-07-09T01:13:52;21.59;63.11
63976;DHT22;50167;47.958;21.780;2023-07-09T01:16:21;22.14;61.32
63976;DHT22;50167;47.958;21.780;2023-07-09T01:18:51;22.34;60.34
63976;DHT22;50167;47.958;21.780;2023-07-09T01:21:17;22.43;59.65
63976;DHT22;50167;47.958;21.780;2023-07-09T01:23:46;22.00;58.87
63976;DHT22;50167;47.958;21.780;2023-07-09T01:26:21;20.97;60.33
63976;DHT22;50167;47.958;21.780;2023-07-09T01:28:47;20.10;62.39
63976;DHT22;50167;47.958;21.780;2023-07-09T01:31:15;20.42;64.74
63976;DHT22;50167;47.958;21.780;2023-07-09T01:33:43;21.48;62.99
63976;DHT22;50167;47.958;21.780;2023-07-09T01:36:20;22.12;60.71
63976;DHT22;50167;47.958;21.780;2023-07-09T01:38:43;22.43;59.40
63976;DHT22;50167;47.958;21.780;2023-07-09T01:41:10;22.03;58.17
63976;DHT22;50167;47.958;21.780;2023-07-09T01:43:41;20.94;59.61
63976;DHT22;50167;47.958;21.780;2023-07-09T01:46:08;20.07;61.77
63976;DHT22;50167;47.958;21.780;2023-07-09T01:48:35;19.34;63.63
63976;DHT22;50167;47.958;21.780;2023-07-09T01:51:12;19.91;65.92
63976;DHT22;50167;47.958;21.780;2023-07-09T01:53:40;21.04;63.70
63976;DHT22;50167;47.958;21.780;2023-07-09T01:56:07;21.62;61.64
63976;DHT22;50167;47.958;21.780;2023-07-09T01:58:34;21.97;60.20
63976;DHT22;50167;47.958;21.780;2023-07-09T02:01:00;22.23;59.28
63976;DHT22;50167;47.958;21.780;2023-07-09T02:03:26;21.82;58.27
63976;DHT22;50167;47.958;21.780;2023-07-09T02:05:53;20.80;60.14
63976;DHT22;50167;47.958;21.780;2023-07-09T02:08:20;19.93;62.21
63976;DHT22;50167;47.958;21.780;2023-07-09T02:10:50;20.21;64.76
63976;DHT22;50167;47.958;21.780;2023-07-09T02:13:17;21.21;63.02
63976;DHT22;50167;47.958;21.780;2023-07-09T02:15:44;21.79;61.12
63976;DHT22;50167;47.958;21.780;2023-07-09T02:18:12;22.09;59.94
63976;DHT22;50167;47.958;21.780;2023-07-09T02:20:38;22.33;58.91
63976;DHT22;50167;47.958;21.780;2023-07-09T02:23:07;21.89;58.19
63976;DHT22;50167;47.958;21.780;2023-07-09T02:25:34;20.84;59.80
63976;DHT22;50167;47.958;21.780;2023-07-09T02:28:00;20.01;61.62
63976;DHT22;50167;47.958;21.780;2023-07-09T02:30:27;19.35;63.67
63976;DHT22;50167;47.958;21.780;2023-07-09T02:32:53;19.86;65.45
63976;DHT22;50167;47.958;21.780;2023-07-09T02:35:23;21.00;63.54
63976;DHT22;50167;47.958;21.780;2023-07-09T02:37:49;21.62;61.07
63976;DHT22;50167;47.958;21.780;2023-07-09T02:40:16;21.97;60.04
63976;DHT22;50167;47.958;21.780;2023-07-09T02:42:43;22.20;58.63
63976;DHT22;50167;47.958;21.780;2023-07-09T02:45:10;21.76;57.58
63976;DHT22;50167;47.958;21.780;2023-07-09T02:47:37;20.76;59.46
63976;DHT22;50167;47.958;21.780;2023-07-09T02:50:04;19.96;61.56
63976;DHT22;50167;47.958;21.780;2023-07-09T02:52:30;19.31;63.30
63976;DHT22;50167;47.958;21.780;2023-07-09T02:54:56;19.86;65.45
63976;DHT22;50167;47.958;21.780;2023-07-09T02:57:23;20.94;63.39
63976;DHT22;50167;47.958;21.780;2023-07-09T02:59:49;21.59;61.10
63976;DHT22;50167;47.958;21.780;2023-07-09T03:02:15;21.93;59.55
63976;DHT22;50167;47.958;21.780;2023-07-09T03:04:41;21.54;58.25
63976;DHT22;50167;47.958;21.780;2023-07-09T03:07:08;20.53;59.97
63976;DHT22;50167;47.958;21.780;2023-07-09T03:09:34;19.67;62.20
63976;DHT22;50167;47.958;21.780;2023-07-09T03:12:00;19.96;64.41
63976;DHT22;50167;47.958;21.780;2023-07-09T03:14:27;20.94;63.00
63976;DHT22;50167;47.958;21.780;2023-07-09T03:16:53;21.58;60.93
63976;DHT22;50167;47.958;21.780;2023-07-09T03:19:19;21.93;59.57
63976;DHT22;50167;47.958;21.780;2023-07-09T03:21:45;21.62;58.34
63976;DHT22;50167;47.958;21.780;2023-07-09T03:24:11;20.68;59.88
63976;DHT22;50167;47.958;21.780;2023-07-09T03:26:39;19.88;61.90
63976;DHT22;50167;47.958;21.780;2023-07-09T03:29:05;19.25;63.55
63976;DHT22;50167;47.958;21.780;2023-07-09T03:31:31;19.70;65.52
63976;DHT22;50167;47.958;21.780;2023-07-09T03:34:00;20.79;63.73
63976;DHT22;50167;47.958;21.780;2023-07-09T03:36:26;21.44;61.34
63976;DHT22;50167;47.958;21.780;2023-07-09T03:38:53;21.83;59.76
63976;DHT22;50167;47.958;21.780;2023-07-09T03:41:19;22.13;58.68
63976;DHT22;50167;47.958;21.780;2023-07-09T03:43:46;21.72;57.60
63976;DHT22;50167;47.958;21.780;2023-07-09T03:46:15;20.79;58.78
63976;DHT22;50167;47.958;21.780;2023-07-09T03:48:41;20.05;60.80
63976;DHT22;50167;47.958;21.780;2023-07-09T03:51:08;19.44;62.85
63976;DHT22;50167;47.958;21.780;2023-07-09T03:53:34;20.03;64.69
63976;DHT22;50167;47.958;21.780;2023-07-09T03:56:00;21.17;62.72
63976;DHT22;50167;47.958;21.780;2023-07-09T03:58:26;21.80;60.53
63976;DHT22;50167;47.958;21.780;2023-07-09T04:00:53;22.07;59.03
63976;DHT22;50167;47.958;21.780;2023-07-09T04:03:21;21.68;58.12
63976;DHT22;50167;47.958;21.780;2023-07-09T04:05:49;20.80;59.79
63976;DHT22;50167;47.958;21.780;2023-07-09T04:08:15;20.10;61.56
63976;DHT22;50167;47.958;21.780;2023-07-09T04:10:41;19.50;63.20
63976;DHT22;50167;47.958;21.780;2023-07-09T04:13:08;20.08;65.33
63976;DHT22;50167;47.958;21.780;2023-07-09T04:15:35;21.20;63.00
63976;DHT22;50167;47.958;21.780;2023-07-09T04:18:01;21.85;60.76
63976;DHT22;50167;47.958;21.780;2023-07-09T04:20:27;22.24;59.58
63976;DHT22;50167;47.958;21.780;2023-07-09T04:22:54;22.55;58.85
63976;DHT22;50167;47.958;21.780;2023-07-09T04:25:20;22.20;57.93
63976;DHT22;50167;47.958;21.780;2023-07-09T04:27:46;21.36;59.43
63976;DHT22;50167;47.958;21.780;2023-07-09T04:30:14;20.68;61.50
63976;DHT22;50167;47.958;21.780;2023-07-09T04:32:43;20.14;62.66
63976;DHT22;50167;47.958;21.780;2023-07-09T04:35:10;20.73;64.62
63976;DHT22;50167;47.958;21.780;2023-07-09T04:37:38;22.02;62.20
63976;DHT22;50167;47.958;21.780;2023-07-09T04:40:06;22.86;60.11
63976;DHT22;50167;47.958;21.780;2023-07-09T04:42:35;23.46;58.48
63976;DHT22;50167;47.958;21.780;2023-07-09T04:45:01;23.25;57.10
63976;DHT22;50167;47.958;21.780;2023-07-09T04:47:27;22.58;58.38
63976;DHT22;50167;47.958;21.780;2023-07-09T04:49:54;22.07;59.61
63976;DHT22;50167;47.958;21.780;2023-07-09T04:52:22;21.72;60.51
63976;DHT22;50167;47.958;21.780;2023-07-09T04:54:48;21.51;61.46
63976;DHT22;50167;47.958;21.780;2023-07-09T04:57:16;21.30;62.36
63976;DHT22;50167;47.958;21.780;2023-07-09T04:59:43;21.91;62.85
63976;DHT22;50167;47.958;21.780;2023-07-09T05:02:11;22.93;60.59
63976;DHT22;50167;47.958;21.780;2023-07-09T05:04:37;23.83;58.47
63976;DHT22;50167;47.958;21.780;2023-07-09T05:07:03;23.88;56.71
63976;DHT22;50167;47.958;21.780;2023-07-09T05:09:30;23.32;57.78
63976;DHT22;50167;47.958;21.780;2023-07-09T05:11:56;22.91;58.98
63976;DHT22;50167;47.958;21.780;2023-07-09T05:14:22;22.58;60.13
63976;DHT22;50167;47.958;21.780;2023-07-09T05:16:49;22.37;60.76
63976;DHT22;50167;47.958;21.780;2023-07-09T05:19:15;22.17;61.32
63976;DHT22;50167;47.958;21.780;2023-07-09T05:21:43;22.06;61.31
63976;DHT22;50167;47.958;21.780;2023-07-09T05:24:09;21.95;61.49
63976;DHT22;50167;47.958;21.780;2023-07-09T05:26:37;21.86;62.39
63976;DHT22;50167;47.958;21.780;2023-07-09T05:29:04;22.48;62.38
63976;DHT22;50167;47.958;21.780;2023-07-09T05:31:33;23.85;59.12
63976;DHT22;50167;47.958;21.780;2023-07-09T05:34:00;24.19;56.89
63976;DHT22;50167;47.958;21.780;2023-07-09T05:36:27;23.71;57.21
63976;DHT22;50167;47.958;21.780;2023-07-09T05:38:55;23.34;58.06
63976;DHT22;50167;47.958;21.780;2023-07-09T05:41:21;23.16;58.48
63976;DHT22;50167;47.958;21.780;2023-07-09T05:43:52;23.02;55.64
63976;DHT22;50167;47.958;21.780;2023-07-09T05:46:19;22.96;59.80
63976;DHT22;50167;47.958;21.780;2023-07-09T05:48:45;22.83;60.26
63976;DHT22;50167;47.958;21.780;2023-07-09T05:51:13;22.76;61.26
63976;DHT22;50167;47.958;21.780;2023-07-09T05:53:39;22.74;62.13
63976;DHT22;50167;47.958;21.780;2023-07-09T05:56:06;22.75;62.52
63976;DHT22;50167;47.958;21.780;2023-07-09T05:58:33;23.65;61.51
63976;DHT22;50167;47.958;21.780;2023-07-09T06:00:59;25.12;57.63
63976;DHT22;50167;47.958;21.780;2023-07-09T06:03:26;25.42;54.07
63976;DHT22;50167;47.958;21.780;2023-07-09T06:05:53;24.98;53.48
63976;DHT22;50167;47.958;21.780;2023-07-09T06:08:20;24.66;54.65
63976;DHT22;50167;47.958;21.780;2023-07-09T06:10:55;24.47;54.80
63976;DHT22;50167;47.958;21.780;2023-07-09T06:13:21;24.39;55.03
63976;DHT22;50167;47.958;21.780;2023-07-09T06:15:51;24.36;55.31
63976;DHT22;50167;47.958;21.780;2023-07-09T06:18:17;24.44;56.06
63976;DHT22;50167;47.958;21.780;2023-07-09T06:20:49;24.44;56.22
63976;DHT22;50167;47.958;21.780;2023-07-09T06:23:16;24.43;56.79
63976;DHT22;50167;47.958;21.780;2023-07-09T06:25:45;24.44;56.81
63976;DHT22;50167;47.958;21.780;2023-07-09T06:28:16;24.56;55.91
63976;DHT22;50167;47.958;21.780;2023-07-09T06:30:42;24.68;55.35
63976;DHT22;50167;47.958;21.780;2023-07-09T06:33:10;24.77;55.71
63976;DHT22;50167;47.958;21.780;2023-07-09T06:35:37;24.88;54.52
63976;DHT22;50167;47.958;21.780;2023-07-09T06:38:03;25.04;54.70
63976;DHT22;50167;47.958;21.780;2023-07-09T06:40:29;25.15;53.57
63976;DHT22;50167;47.958;21.780;2023-07-09T06:42:55;25.22;53.32
63976;DHT22;50167;47.958;21.780;2023-07-09T06:45:24;25.19;52.74
63976;DHT22;50167;47.958;21.780;2023-07-09T06:47:50;25.17;52.64
63976;DHT22;50167;47.958;21.780;2023-07-09T06:50:16;25.25;52.51
63976;DHT22;50167;47.958;21.780;2023-07-09T06:52:43;25.29;52.28
63976;DHT22;50167;47.958;21.780;2023-07-09T06:55:09;25.35;52.28
63976;DHT22;50167;47.958;21.780;2023-07-09T06:57:35;25.39;52.07
63976;DHT22;50167;47.958;21.780;2023-07-09T07:00:03;25.55;52.01
63976;DHT22;50167;47.958;21.780;2023-07-09T07:02:29;25.66;51.28
63976;DHT22;50167;47.958;21.780;2023-07-09T07:04:55;25.84;50.59
63976;DHT22;50167;47.958;21.780;2023-07-09T07:07:22;26.01;50.40
63976;DHT22;50167;47.958;21.780;2023-07-09T07:09:48;26.14;50.68
63976;DHT22;50167;47.958;21.780;2023-07-09T07:12:25;26.25;50.99
63976;DHT22;50167;47.958;21.780;2023-07-09T07:14:53;26.39;50.71
63976;DHT22;50167;47.958;21.780;2023-07-09T07:17:20;26.53;50.43
63976;DHT22;50167;47.958;21.780;2023-07-09T07:19:47;26.63;49.84
63976;DHT22;50167;47.958;21.780;2023-07-09T07:22:14;26.60;50.18
63976;DHT22;50167;47.958;21.780;2023-07-09T07:24:40;26.63;50.22
63976;DHT22;50167;47.958;21.780;2023-07-09T07:27:08;26.72;48.80
63976;DHT22;50167;47.958;21.780;2023-07-09T07:29:34;26.80;49.02
63976;DHT22;50167;47.958;21.780;2023-07-09T07:32:01;26.91;48.87
63976;DHT22;50167;47.958;21.780;2023-07-09T07:34:27;26.99;47.55
63976;DHT22;50167;47.958;21.780;2023-07-09T07:36:53;27.06;47.99
63976;DHT22;50167;47.958;21.780;2023-07-09T07:39:19;27.15;47.64
63976;DHT22;50167;47.958;21.780;2023-07-09T07:46:32;27.37;46.76
63976;DHT22;50167;47.958;21.780;2023-07-09T07:49:13;27.51;47.16
63976;DHT22;50167;47.958;21.780;2023-07-09T07:51:40;27.66;47.00
63976;DHT22;50167;47.958;21.780;2023-07-09T07:54:07;27.79;45.82
63976;DHT22;50167;47.958;21.780;2023-07-09T07:56:35;27.89;45.79
63976;DHT22;50167;47.958;21.780;2023-07-09T08:03:39;28.04;45.68
63976;DHT22;50167;47.958;21.780;2023-07-09T08:06:05;28.09;45.72
63976;DHT22;50167;47.958;21.780;2023-07-09T08:08:32;28.19;45.81
63976;DHT22;50167;47.958;21.780;2023-07-09T08:11:05;28.24;45.29
63976;DHT22;50167;47.958;21.780;2023-07-09T08:13:34;28.34;45.34
63976;DHT22;50167;47.958;21.780;2023-07-09T08:16:05;28.40;45.30
63976;DHT22;50167;47.958;21.780;2023-07-09T08:18:32;28.35;44.68
63976;DHT22;50167;47.958;21.780;2023-07-09T08:20:59;28.27;44.83
63976;DHT22;50167;47.958;21.780;2023-07-09T08:23:35;28.31;44.79
63976;DHT22;50167;47.958;21.780;2023-07-09T08:26:03;28.48;44.82
63976;DHT22;50167;47.958;21.780;2023-07-09T08:28:30;28.61;45.41
63976;DHT22;50167;47.958;21.780;2023-07-09T08:34:57;28.93;44.93
63976;DHT22;50167;47.958;21.780;2023-07-09T08:37:23;29.02;44.88
63976;DHT22;50167;47.958;21.780;2023-07-09T08:39:49;29.17;44.91
63976;DHT22;50167;47.958;21.780;2023-07-09T08:48:29;29.43;43.16
63976;DHT22;50167;47.958;21.780;2023-07-09T08:51:12;29.58;42.70
63976;DHT22;50167;47.958;21.780;2023-07-09T08:53:50;29.69;43.12
63976;DHT22;50167;47.958;21.780;2023-07-09T08:56:17;29.79;41.82
63976;DHT22;50167;47.958;21.780;2023-07-09T08:58:44;29.78;40.69
63976;DHT22;50167;47.958;21.780;2023-07-09T09:01:26;29.81;40.53
63976;DHT22;50167;47.958;21.780;2023-07-09T09:04:18;29.92;39.71
63976;DHT22;50167;47.958;21.780;2023-07-09T09:06:41;30.08;39.52
63976;DHT22;50167;47.958;21.780;2023-07-09T09:09:44;30.16;39.94
63976;DHT22;50167;47.958;21.780;2023-07-09T09:12:20;30.25;37.13
63976;DHT22;50167;47.958;21.780;2023-07-09T09:14:57;30.27;38.49
63976;DHT22;50167;47.958;21.780;2023-07-09T09:17:26;30.29;38.34
63976;DHT22;50167;47.958;21.780;2023-07-09T09:19:57;30.33;39.31
63976;DHT22;50167;47.958;21.780;2023-07-09T09:22:52;30.39;39.10
63976;DHT22;50167;47.958;21.780;2023-07-09T09:25:29;30.47;38.93
63976;DHT22;50167;47.958;21.780;2023-07-09T09:27:53;30.52;37.26
63976;DHT22;50167;47.958;21.780;2023-07-09T09:30:22;30.54;37.54
63976;DHT22;50167;47.958;21.780;2023-07-09T09:32:53;30.61;36.74
63976;DHT22;50167;47.958;21.780;2023-07-09T09:35:34;30.66;36.37
63976;DHT22;50167;47.958;21.780;2023-07-09T09:37:59;30.77;35.63
63976;DHT22;50167;47.958;21.780;2023-07-09T09:40:33;30.84;34.65
63976;DHT22;50167;47.958;21.780;2023-07-09T09:42:57;30.84;35.27
63976;DHT22;50167;47.958;21.780;2023-07-09T09:45:38;30.80;36.22
63976;DHT22;50167;47.958;21.780;2023-07-09T09:48:06;30.85;34.79
63976;DHT22;50167;47.958;21.780;2023-07-09T09:50:31;30.84;34.26
63976;DHT22;50167;47.958;21.780;2023-07-09T09:52:59;30.92;34.99
63976;DHT22;50167;47.958;21.780;2023-07-09T09:55:31;30.99;33.11
63976;DHT22;50167;47.958;21.780;2023-07-09T09:57:59;31.07;34.18
63976;DHT22;50167;47.958;21.780;2023-07-09T10:00:27;31.12;34.00
63976;DHT22;50167;47.958;21.780;2023-07-09T10:03:02;31.15;33.15
63976;DHT22;50167;47.958;21.780;2023-07-09T10:05:37;31.21;34.44
63976;DHT22;50167;47.958;21.780;2023-07-09T10:11:35;31.43;33.54
63976;DHT22;50167;47.958;21.780;2023-07-09T10:14:04;31.45;34.27
63976;DHT22;50167;47.958;21.780;2023-07-09T10:16:44;31.46;33.40
63976;DHT22;50167;47.958;21.780;2023-07-09T10:19:35;31.36;32.17
63976;DHT22;50167;47.958;21.780;2023-07-09T10:22:10;31.38;30.87
63976;DHT22;50167;47.958;21.780;2023-07-09T10:24:56;31.52;34.02
63976;DHT22;50167;47.958;21.780;2023-07-09T10:33:09;32.13;33.12
63976;DHT22;50167;47.958;21.780;2023-07-09T10:35:51;32.13;30.84
63976;DHT22;50167;47.958;21.780;2023-07-09T10:40:56;31.98;30.80
63976;DHT22;50167;47.958;21.780;2023-07-09T10:43:36;32.03;30.58
63976;DHT22;50167;47.958;21.780;2023-07-09T10:46:24;32.08;32.19
63976;DHT22;50167;47.958;21.780;2023-07-09T10:48:50;32.11;31.28
63976;DHT22;50167;47.958;21.780;2023-07-09T10:51:38;32.11;30.36
63976;DHT22;50167;47.958;21.780;2023-07-09T10:54:19;32.20;29.93
63976;DHT22;50167;47.958;21.780;2023-07-09T10:56:45;32.28;29.63
63976;DHT22;50167;47.958;21.780;2023-07-09T10:59:30;32.38;30.96
63976;DHT22;50167;47.958;21.780;2023-07-09T11:04:49;32.36;30.55
63976;DHT22;50167;47.958;21.780;2023-07-09T11:07:20;32.25;30.04
63976;DHT22;50167;47.958;21.780;2023-07-09T11:09:47;32.17;30.73
63976;DHT22;50167;47.958;21.780;2023-07-09T11:12:21;32.20;31.02
63976;DHT22;50167;47.958;21.780;2023-07-09T11:14:57;32.28;30.92
63976;DHT22;50167;47.958;21.780;2023-07-09T11:17:27;32.42;30.68
63976;DHT22;50167;47.958;21.780;2023-07-09T11:19:56;32.45;29.11
63976;DHT22;50167;47.958;21.780;2023-07-09T11:22:36;32.45;30.10
63976;DHT22;50167;47.958;21.780;2023-07-09T11:25:12;32.51;29.19
63976;DHT22;50167;47.958;21.780;2023-07-09T11:27:51;32.51;29.58
63976;DHT22;50167;47.958;21.780;2023-07-09T11:30:22;32.57;29.43
63976;DHT22;50167;47.958;21.780;2023-07-09T11:33:02;32.59;29.85
63976;DHT22;50167;47.958;21.780;2023-07-09T11:35:29;32.59;30.22
63976;DHT22;50167;47.958;21.780;2023-07-09T11:37:56;32.57;28.86
63976;DHT22;50167;47.958;21.780;2023-07-09T11:40:26;32.49;29.85
63976;DHT22;50167;47.958;21.780;2023-07-09T11:42:56;32.49;30.13
63976;DHT22;50167;47.958;21.780;2023-07-09T11:45:32;32.59;31.57
63976;DHT22;50167;47.958;21.780;2023-07-09T11:48:26;32.72;29.67
63976;DHT22;50167;47.958;21.780;2023-07-09T11:50:55;32.83;29.00
63976;DHT22;50167;47.958;21.780;2023-07-09T11:53:34;32.96;28.98
63976;DHT22;50167;47.958;21.780;2023-07-09T11:56:00;33.10;29.45
63976;DHT22;50167;47.958;21.780;2023-07-09T11:58:27;33.18;29.54
63976;DHT22;50167;47.958;21.780;2023-07-09T12:00:57;33.21;30.09
63976;DHT22;50167;47.958;21.780;2023-07-09T12:03:50;33.27;30.15
63976;DHT22;50167;47.958;21.780;2023-07-09T12:06:26;33.30;29.02
63976;DHT22;50167;47.958;21.780;2023-07-09T12:08:51;33.31;30.17
63976;DHT22;50167;47.958;21.780;2023-07-09T12:11:24;33.34;27.79
63976;DHT22;50167;47.958;21.780;2023-07-09T12:13:51;33.18;28.17
63976;DHT22;50167;47.958;21.780;2023-07-09T12:16:28;33.20;28.42
63976;DHT22;50167;47.958;21.780;2023-07-09T12:18:55;33.33;29.46
63976;DHT22;50167;47.958;21.780;2023-07-09T12:21:23;33.44;28.70
63976;DHT22;50167;47.958;21.780;2023-07-09T12:23:51;33.54;29.27
63976;DHT22;50167;47.958;21.780;2023-07-09T12:26:19;33.63;28.03
63976;DHT22;50167;47.958;21.780;2023-07-09T12:28:53;33.74;27.53
63976;DHT22;50167;47.958;21.780;2023-07-09T12:31:27;33.81;27.03
63976;DHT22;50167;47.958;21.780;2023-07-09T12:33:56;33.91;27.27
63976;DHT22;50167;47.958;21.780;2023-07-09T12:36:25;33.85;27.13
63976;DHT22;50167;47.958;21.780;2023-07-09T12:38:54;33.74;28.11
63976;DHT22;50167;47.958;21.780;2023-07-09T12:41:25;33.72;27.95
63976;DHT22;50167;47.958;21.780;2023-07-09T12:43:53;33.69;27.99
63976;DHT22;50167;47.958;21.780;2023-07-09T12:46:26;33.85;28.59
63976;DHT22;50167;47.958;21.780;2023-07-09T12:48:55;34.02;28.86
63976;DHT22;50167;47.958;21.780;2023-07-09T12:51:25;34.30;28.77
63976;DHT22;50167;47.958;21.780;2023-07-09T12:54:15;34.84;27.02
63976;DHT22;50167;47.958;21.780;2023-07-09T12:56:42;35.41;26.13
63976;DHT22;50167;47.958;21.780;2023-07-09T12:59:25;36.00;25.85
63976;DHT22;50167;47.958;21.780;2023-07-09T13:02:02;36.72;25.83
63976;DHT22;50167;47.958;21.780;2023-07-09T13:04:31;37.37;24.04
63976;DHT22;50167;47.958;21.780;2023-07-09T13:06:58;37.82;22.58
63976;DHT22;50167;47.958;21.780;2023-07-09T13:09:26;38.14;22.20
63976;DHT22;50167;47.958;21.780;2023-07-09T13:11:55;38.35;21.89
63976;DHT22;50167;47.958;21.780;2023-07-09T13:14:29;38.60;22.62
63976;DHT22;50167;47.958;21.780;2023-07-09T13:17:09;39.05;22.42
63976;DHT22;50167;47.958;21.780;2023-07-09T13:19:36;39.46;22.14
63976;DHT22;50167;47.958;21.780;2023-07-09T13:22:07;39.67;20.91
63976;DHT22;50167;47.958;21.780;2023-07-09T13:24:49;39.80;20.06
63976;DHT22;50167;47.958;21.780;2023-07-09T13:27:25;40.10;20.74
63976;DHT22;50167;47.958;21.780;2023-07-09T13:29:52;40.58;20.61
63976;DHT22;50167;47.958;21.780;2023-07-09T13:32:18;41.02;20.04
63976;DHT22;50167;47.958;21.780;2023-07-09T13:34:44;41.47;20.05
63976;DHT22;50167;47.958;21.780;2023-07-09T13:37:14;41.87;20.10
63976;DHT22;50167;47.958;21.780;2023-07-09T13:39:42;42.30;19.64
63976;DHT22;50167;47.958;21.780;2023-07-09T13:42:13;42.60;19.67
63976;DHT22;50167;47.958;21.780;2023-07-09T13:45:01;42.80;19.61
63976;DHT22;50167;47.958;21.780;2023-07-09T13:47:28;42.98;19.39
63976;DHT22;50167;47.958;21.780;2023-07-09T13:49:54;42.98;18.67
63976;DHT22;50167;47.958;21.780;2023-07-09T13:52:23;43.14;18.96
63976;DHT22;50167;47.958;21.780;2023-07-09T13:54:51;43.38;18.30
63976;DHT22;50167;47.958;21.780;2023-07-09T13:57:20;43.52;18.32
63976;DHT22;50167;47.958;21.780;2023-07-09T13:59:48;43.46;18.54
63976;DHT22;50167;47.958;21.780;2023-07-09T14:02:26;43.42;18.03
63976;DHT22;50167;47.958;21.780;2023-07-09T14:08:31;43.67;17.86
63976;DHT22;50167;47.958;21.780;2023-07-09T14:10:57;43.70;18.24
63976;DHT22;50167;47.958;21.780;2023-07-09T14:13:24;43.55;18.07
63976;DHT22;50167;47.958;21.780;2023-07-09T14:15:51;43.46;17.91
63976;DHT22;50167;47.958;21.780;2023-07-09T14:18:21;43.51;18.49
63976;DHT22;50167;47.958;21.780;2023-07-09T14:20:49;43.63;17.76
63976;DHT22;50167;47.958;21.780;2023-07-09T14:27:17;43.59;17.95
63976;DHT22;50167;47.958;21.780;2023-07-09T14:29:44;43.60;17.87
63976;DHT22;50167;47.958;21.780;2023-07-09T14:32:38;43.79;18.06
63976;DHT22;50167;47.958;21.780;2023-07-09T14:35:10;44.26;17.84
63976;DHT22;50167;47.958;21.780;2023-07-09T14:37:31;44.69;17.00
63976;DHT22;50167;47.958;21.780;2023-07-09T14:40:01;45.09;17.40
63976;DHT22;50167;47.958;21.780;2023-07-09T14:42:27;45.44;17.27
63976;DHT22;50167;47.958;21.780;2023-07-09T14:48:57;45.61;15.75
63976;DHT22;50167;47.958;21.780;2023-07-09T14:51:23;45.53;16.58
63976;DHT22;50167;47.958;21.780;2023-07-09T14:53:51;45.53;16.76
63976;DHT22;50167;47.958;21.780;2023-07-09T15:00:20;44.79;17.25
63976;DHT22;50167;47.958;21.780;2023-07-09T15:02:50;44.72;16.30
63976;DHT22;50167;47.958;21.780;2023-07-09T15:11:59;45.30;16.24
63976;DHT22;50167;47.958;21.780;2023-07-09T15:14:26;45.26;16.47
63976;DHT22;50167;47.958;21.780;2023-07-09T15:16:53;45.02;16.79
63976;DHT22;50167;47.958;21.780;2023-07-09T15:19:21;44.86;16.79
63976;DHT22;50167;47.958;21.780;2023-07-09T15:21:49;44.72;17.44
63976;DHT22;50167;47.958;21.780;2023-07-09T15:26:53;43.99;17.78
63976;DHT22;50167;47.958;21.780;2023-07-09T15:29:20;43.41;18.17
63976;DHT22;50167;47.958;21.780;2023-07-09T15:31:47;42.85;18.14
63976;DHT22;50167;47.958;21.780;2023-07-09T15:34:14;42.39;18.31
63976;DHT22;50167;47.958;21.780;2023-07-09T15:36:50;42.16;19.00
63976;DHT22;50167;47.958;21.780;2023-07-09T15:39:19;41.90;19.57
63976;DHT22;50167;47.958;21.780;2023-07-09T15:41:47;41.58;19.18
63976;DHT22;50167;47.958;21.780;2023-07-09T15:44:16;41.44;19.17
63976;DHT22;50167;47.958;21.780;2023-07-09T15:46:55;41.17;19.40
63976;DHT22;50167;47.958;21.780;2023-07-09T15:49:23;40.71;20.62
63976;DHT22;50167;47.958;21.780;2023-07-09T15:51:49;40.17;21.09
63976;DHT22;50167;47.958;21.780;2023-07-09T15:55:02;39.33;21.25
63976;DHT22;50167;47.958;21.780;2023-07-09T15:57:28;38.16;21.78
63976;DHT22;50167;47.958;21.780;2023-07-09T15:59:55;37.33;22.78
63976;DHT22;50167;47.958;21.780;2023-07-09T16:02:22;36.51;24.04
63976;DHT22;50167;47.958;21.780;2023-07-09T16:04:48;35.90;24.37
63976;DHT22;50167;47.958;21.780;2023-07-09T16:07:14;35.46;25.10
63976;DHT22;50167;47.958;21.780;2023-07-09T16:09:40;34.98;25.65
63976;DHT22;50167;47.958;21.780;2023-07-09T16:12:10;34.50;27.24
63976;DHT22;50167;47.958;21.780;2023-07-09T16:14:39;34.03;28.30
63976;DHT22;50167;47.958;21.780;2023-07-09T16:17:08;33.61;28.48
63976;DHT22;50167;47.958;21.780;2023-07-09T16:19:36;33.21;29.77
63976;DHT22;50167;47.958;21.780;2023-07-09T16:22:05;32.85;29.16
63976;DHT22;50167;47.958;21.780;2023-07-09T16:24:35;32.46;28.90
63976;DHT22;50167;47.958;21.780;2023-07-09T16:27:05;32.13;29.54
63976;DHT22;50167;47.958;21.780;2023-07-09T16:29:34;31.83;31.27